Aviation Digital Data Service (ADDS)

Output produced by METARs form (1048 UTC 30 August 2016)
found at http://aviationweather.gov/adds/metars/
 
KPHF 300531Z 3006/3106 07004KT P6SM SKC 
     FM301500 06008KT P6SM SKC